[ EDKA 312320Z AUTO 25012KT 9999 ///////// 06/04 Q1021 ]
Windrichtung (graph.)
Inst: 241° 12.1kt
2min: 241° 9.7kt
10min: 242° 10.3kt
Extrem: 228° - 260° 15.4kt - 7kt
Crosswind: 1.5kt
Luftdruck (graph.)
QNH: 1021 hPa Temp: 5.4 °C
QNH: 30.15 inHg DewP: 3.5 °C
QFE: 998 hPa Hum: 87.5 %
QFE: 29.49 inHg